29  °C
Temperature
14  °C
  Dewpoint
   Humidity
Temp | Dewpoint | Humidity
16  km/h
Wind Speed
10  mph
Wind Speed
9  kts
Wind Speed
200°
South South
West

Wind Speed
Partly Cloudy
Conditions
Pressure 1008.92 (hPa) - 29.79 (in)
Visibility 6.2 (mi) - 10.0 (km)

Current Conditions
LGTS
Location 6km (3.2mi)
Metar :LGTS 161250Z 20009KT 9999 FEW025 29/14 Q1009 NOSIG
Thu 16th July 14:50 pm

Airport
  Metar Aviation API Data Provided by https://www.checkwx.com/ CSS/SVG/PHP scripts by weather34.com © 2015-2020